createdAt,value
2017-09-19T17:30:22.385Z,12.10
2017-09-19T17:32:50.700Z,12.00
2017-09-19T17:35:18.257Z,12.00
2017-09-19T17:37:45.767Z,11.90
2017-09-19T17:40:13.319Z,11.80
2017-09-19T17:42:41.859Z,11.80
2017-09-19T17:45:09.530Z,11.70
2017-09-19T17:47:37.124Z,11.70
2017-09-19T17:50:04.620Z,11.70
2017-09-19T17:52:32.181Z,11.60
2017-09-19T17:54:59.711Z,11.50
2017-09-19T19:01:39.667Z,20.70
2017-09-19T19:06:30.076Z,23.70
2017-09-19T19:14:52.756Z,23.00
2017-09-19T19:17:20.254Z,21.30
2017-09-19T19:19:47.773Z,19.10
2017-09-19T19:22:15.947Z,17.00
2017-09-19T19:24:43.877Z,15.30
2017-09-19T19:27:12.638Z,13.20
2017-09-19T19:29:41.087Z,12.60
2017-09-19T19:32:09.428Z,12.60
2017-09-19T19:34:38.849Z,11.90
2017-09-19T19:37:09.257Z,11.80
2017-09-19T19:39:37.088Z,11.70
2017-09-19T19:42:05.877Z,11.30
2017-09-19T19:44:34.462Z,11.30
2017-09-19T19:47:02.137Z,11.20
2017-09-19T19:49:33.291Z,11.10
2017-09-19T19:52:00.948Z,11.00
2017-09-19T19:54:29.457Z,11.00
2017-09-19T19:56:57.763Z,10.90
2017-09-19T19:59:26.312Z,10.90
2017-09-19T20:01:53.874Z,10.90
2017-09-19T20:04:21.523Z,10.80
2017-09-19T20:06:50.523Z,10.80
2017-09-19T20:09:19.045Z,10.70
2017-09-19T20:11:46.629Z,10.70
2017-09-19T20:14:14.992Z,10.60
2017-09-19T20:16:42.832Z,10.60
2017-09-19T20:19:11.894Z,10.60
2017-09-19T20:21:39.455Z,10.60
2017-09-19T20:24:07.046Z,10.60
2017-09-19T20:26:34.814Z,10.60
2017-09-19T20:29:02.508Z,10.60
2017-09-19T20:31:30.116Z,10.50
2017-09-19T20:33:57.903Z,10.50
2017-09-19T20:36:25.462Z,10.50
2017-09-19T20:38:53.870Z,10.50
2017-09-19T20:41:22.310Z,10.50
2017-09-19T20:43:50.727Z,10.40
2017-09-19T20:46:18.356Z,10.40
2017-09-19T20:48:46.051Z,10.40
2017-09-19T20:51:13.717Z,10.40
2017-09-19T20:53:41.559Z,10.40
2017-09-19T20:56:09.937Z,10.40
2017-09-19T20:58:37.528Z,10.30
2017-09-19T21:01:05.573Z,10.40
2017-09-19T21:03:39.849Z,10.40
2017-09-19T21:06:13.526Z,10.30
2017-09-19T21:08:47.146Z,10.30
2017-09-19T21:11:20.372Z,10.30
2017-09-19T21:13:53.632Z,10.30
2017-09-19T21:16:26.798Z,10.30
2017-09-19T21:19:00.744Z,10.20
2017-09-19T21:21:28.388Z,10.20
2017-09-19T21:23:55.931Z,10.20
2017-09-19T21:26:23.539Z,10.20
2017-09-19T21:28:51.967Z,10.20
2017-09-19T21:31:19.641Z,10.20
2017-09-19T21:33:47.275Z,10.20
2017-09-19T21:36:14.920Z,10.20
2017-09-19T21:38:42.549Z,10.20
2017-09-19T21:41:10.128Z,10.20
2017-09-19T21:43:37.710Z,10.20
2017-09-19T21:46:05.390Z,10.20
2017-09-19T21:48:34.339Z,10.20
2017-09-19T21:51:02.671Z,10.20
2017-09-19T21:53:30.263Z,10.20
2017-09-19T21:55:57.827Z,10.20
2017-09-19T21:58:25.420Z,10.20
2017-09-19T22:00:53.111Z,10.20
2017-09-19T22:03:21.504Z,10.10
2017-09-19T22:05:49.065Z,10.10
2017-09-19T22:08:17.652Z,10.10
2017-09-19T22:10:46.109Z,10.20
2017-09-19T22:13:13.755Z,10.10
2017-09-19T22:15:42.087Z,10.20
2017-09-19T22:18:09.616Z,10.20
2017-09-19T22:20:37.123Z,10.20
2017-09-19T22:23:04.683Z,10.20
2017-09-19T22:25:32.193Z,10.20
2017-09-19T22:27:59.887Z,10.20
2017-09-19T22:30:27.396Z,10.20
2017-09-19T22:32:54.939Z,10.20
2017-09-19T22:35:22.535Z,10.20
2017-09-19T22:37:50.810Z,10.10
2017-09-19T22:40:19.095Z,10.10
2017-09-19T22:42:47.363Z,10.10
2017-09-19T22:45:15.666Z,10.10
2017-09-19T22:47:43.198Z,10.10
2017-09-19T22:50:11.474Z,10.10
2017-09-19T22:52:39.792Z,10.10
2017-09-19T22:55:07.294Z,10.10
2017-09-19T22:57:34.816Z,10.10
2017-09-19T23:00:02.359Z,10.10
2017-09-19T23:02:29.890Z,10.10
2017-09-19T23:04:57.394Z,10.20
2017-09-19T23:07:24.959Z,10.10
2017-09-19T23:09:52.472Z,10.10
2017-09-19T23:12:19.998Z,10.20
2017-09-19T23:14:48.361Z,10.20
2017-09-19T23:17:15.883Z,10.10
2017-09-19T23:19:43.397Z,10.20
2017-09-19T23:22:11.676Z,10.20
2017-09-19T23:24:40.188Z,10.20
2017-09-19T23:27:07.707Z,10.20
2017-09-19T23:29:35.991Z,10.20
2017-09-19T23:32:04.280Z,10.20
2017-09-19T23:34:31.787Z,10.20
2017-09-19T23:36:59.322Z,10.20
2017-09-19T23:39:26.837Z,10.30
2017-09-19T23:41:55.152Z,10.30
2017-09-19T23:44:22.670Z,10.30
2017-09-19T23:46:50.235Z,10.30
2017-09-19T23:49:17.753Z,10.30
2017-09-19T23:51:45.257Z,10.30
2017-09-19T23:54:12.790Z,10.30
2017-09-19T23:56:41.066Z,10.20
2017-09-19T23:59:09.359Z,10.20
